Time;durP1;ratioP1;P1;durP2;ratioP2;P2;SDS_P1;SDS_P2;PMS_P1;PMS_P2;Temp;Humidity;BMP_temperature;BMP_pressure;BME280_temperature;BME280_humidity;BME280_pressure;Samples;Min_cycle;Max_cycle;Signal;HPM_P1;HPM_P2
2022/03/21 00:02:22;;;;;;;;;;;;;;;2.73;76.47;99916.81;10324695;28;19937;-78
2022/03/21 00:07:23;;;;;;;;;;;;;;;2.67;80.58;99916.94;10296474;28;20073;-78
2022/03/21 00:12:23;;;;;;;;;;;;;;;2.70;84.79;99922.56;10298109;28;19934;-78
2022/03/21 00:17:25;;;;;;;;;;;;;;;2.66;79.33;99920.63;10263100;28;19930;-77
2022/03/21 00:22:25;;;;;;;;;;;;;;;2.47;89.18;99919.91;10282530;28;20016;-78
2022/03/21 00:27:26;;;;;;;;;;;;;;;2.48;96.84;99925.00;10309390;28;19997;-78
2022/03/21 00:32:31;;;;;;;;;;;;;;;2.29;92.24;99926.13;10312861;28;19935;-78
2022/03/21 00:37:31;;;;;;;;;;;;;;;2.19;96.19;99931.94;10334632;28;19929;-77
2022/03/21 00:42:34;;;;;;;;;;;;;;;2.03;96.95;99929.19;10302801;28;19936;-76
2022/03/21 00:47:36;;;;;;;;;;;;;;;1.93;97.86;99933.19;10318432;28;19929;-78
2022/03/21 00:52:44;;;;;;;;;;;;;;;1.83;99.91;99938.22;10346412;28;20030;-76
2022/03/21 00:57:44;;;;;;;;;;;;;;;1.76;100.00;99940.13;10308443;28;19933;-76
2022/03/21 01:02:45;;;;;;;;;;;;;;;1.60;100.00;99946.03;10329448;28;20384;-77
2022/03/21 01:07:46;;;;;;;;;;;;;;;1.31;100.00;99945.78;10326015;28;20439;-76
2022/03/21 01:12:46;;;;;;;;;;;;;;;1.24;100.00;99945.03;10316881;28;19930;-76
2022/03/21 01:17:48;;;;;;;;;;;;;;;1.15;100.00;99946.34;10322635;28;20044;-77
2022/03/21 01:22:49;;;;;;;;;;;;;;;0.89;100.00;99950.09;10330968;28;19925;-79
2022/03/21 01:27:49;;;;;;;;;;;;;;;0.82;100.00;99957.25;10292348;28;19937;-76
2022/03/21 01:32:50;;;;;;;;;;;;;;;0.61;100.00;99958.47;10301422;28;19988;-77
2022/03/21 01:37:52;;;;;;;;;;;;;;;0.54;100.00;99963.81;10275756;28;20643;-77
2022/03/21 01:42:52;;;;;;;;;;;;;;;0.48;100.00;99961.22;10264704;28;20025;-77
2022/03/21 01:47:52;;;;;;;;;;;;;;;0.40;100.00;99964.94;10268094;28;19933;-78
2022/03/21 01:55:43;;;;;;;;;;;;;;;0.27;100.00;99971.16;10275840;28;19930;-76
2022/03/21 01:58:14;;;;;;;;;;;;;;;0.09;100.00;99970.22;10297532;28;19930;-77
2022/03/21 02:03:19;;;;;;;;;;;;;;;0.04;100.00;99973.50;10270903;28;19977;-78
2022/03/21 02:08:20;;;;;;;;;;;;;;;0.12;100.00;99975.91;10245235;28;19937;-77
2022/03/21 02:13:21;;;;;;;;;;;;;;;0.10;100.00;99983.22;10284515;28;20293;-76
2022/03/21 02:18:22;;;;;;;;;;;;;;;-0.09;100.00;99986.78;10308763;28;19973;-76
2022/03/21 02:23:29;;;;;;;;;;;;;;;-0.20;100.00;99982.16;10291127;28;19934;-76
2022/03/21 02:28:31;;;;;;;;;;;;;;;-0.30;100.00;99985.25;10307094;28;19927;-77
2022/03/21 02:33:31;;;;;;;;;;;;;;;-0.19;100.00;99986.41;10312294;28;19929;-77
2022/03/21 02:38:32;;;;;;;;;;;;;;;-0.24;100.00;99978.34;10293083;28;20040;-78
2022/03/21 02:43:48;;;;;;;;;;;;;;;-0.34;100.00;99978.78;10292824;28;19926;-79
2022/03/21 02:48:49;;;;;;;;;;;;;;;-0.37;100.00;99968.63;10262443;28;19951;-77
2022/03/21 02:53:52;;;;;;;;;;;;;;;-0.55;100.00;99981.69;10294040;28;20279;-78
2022/03/21 02:58:53;;;;;;;;;;;;;;;-0.62;100.00;99979.91;10254174;28;19997;-78
2022/03/21 03:03:53;;;;;;;;;;;;;;;-0.62;100.00;99984.38;10277009;28;19989;-77
2022/03/21 03:08:55;;;;;;;;;;;;;;;-0.78;100.00;99985.63;10285723;28;19926;-77
2022/03/21 03:13:55;;;;;;;;;;;;;;;-0.75;100.00;99985.22;10297154;28;20020;-78
2022/03/21 03:18:56;;;;;;;;;;;;;;;-0.78;100.00;99987.47;10293784;28;19952;-79
2022/03/21 03:23:56;;;;;;;;;;;;;;;-0.96;100.00;99986.28;10284637;28;19977;-77
2022/03/21 03:28:57;;;;;;;;;;;;;;;-1.10;100.00;99983.84;10278173;28;19941;-78
2022/03/21 03:33:59;;;;;;;;;;;;;;;-1.04;100.00;99994.41;10260237;28;19972;-80
2022/03/21 03:39:00;;;;;;;;;;;;;;;-1.05;100.00;100002.50;10277357;28;20017;-79
2022/03/21 03:44:01;;;;;;;;;;;;;;;-1.12;100.00;99997.25;10324133;28;19954;-80
2022/03/21 03:49:01;;;;;;;;;;;;;;;-1.09;100.00;100007.41;10319588;28;20372;-77
2022/03/21 03:54:02;;;;;;;;;;;;;;;-1.09;100.00;100006.59;10310023;28;19929;-79
2022/03/21 03:59:02;;;;;;;;;;;;;;;-1.12;100.00;100004.34;10276529;28;20024;-77
2022/03/21 04:04:03;;;;;;;;;;;;;;;-1.21;100.00;100001.09;10288488;28;19930;-78
2022/03/21 04:09:03;;;;;;;;;;;;;;;-1.18;100.00;100008.63;10289892;28;19925;-77
2022/03/21 04:14:05;;;;;;;;;;;;;;;-1.23;100.00;100008.41;10266770;28;19930;-77
2022/03/21 04:19:05;;;;;;;;;;;;;;;-1.28;100.00;100016.09;10275085;28;19937;-78
2022/03/21 04:24:05;;;;;;;;;;;;;;;-1.48;100.00;100008.19;10259563;28;19933;-77
2022/03/21 04:29:06;;;;;;;;;;;;;;;-1.47;100.00;100010.63;10266926;28;19938;-77
2022/03/21 04:34:07;;;;;;;;;;;;;;;-1.55;100.00;100021.38;10278139;28;19934;-77
2022/03/21 04:39:07;;;;;;;;;;;;;;;-1.58;100.00;100023.56;10291747;28;19961;-78
2022/03/21 04:44:08;;;;;;;;;;;;;;;-1.59;100.00;100028.03;10278325;28;19930;-76
2022/03/21 04:49:08;;;;;;;;;;;;;;;-1.71;100.00;100037.53;10275865;28;19929;-77
2022/03/21 04:54:09;;;;;;;;;;;;;;;-1.75;100.00;100039.75;10324407;28;19930;-77
2022/03/21 04:59:09;;;;;;;;;;;;;;;-1.79;100.00;100049.06;10298206;28;19969;-77
2022/03/21 05:04:10;;;;;;;;;;;;;;;-1.86;100.00;100050.84;10278595;28;20003;-76
2022/03/21 05:09:12;;;;;;;;;;;;;;;-1.89;100.00;100055.72;10295391;28;19976;-78
2022/03/21 05:14:12;;;;;;;;;;;;;;;-1.90;100.00;100067.25;10279474;28;19934;-77
2022/03/21 05:19:12;;;;;;;;;;;;;;;-2.02;100.00;100053.81;10267464;28;19997;-76
2022/03/21 05:45:29;;;;;;;;;;;;;;;-1.82;100.00;100061.81;10289605;28;20017;-78
2022/03/21 05:50:29;;;;;;;;;;;;;;;-1.67;100.00;100064.25;10294881;28;19997;-78
2022/03/21 05:55:30;;;;;;;;;;;;;;;-1.55;100.00;100066.13;10290981;28;19930;-79
2022/03/21 06:00:34;;;;;;;;;;;;;;;-1.51;100.00;100069.16;10322575;28;19926;-79
2022/03/21 06:05:35;;;;;;;;;;;;;;;-1.37;100.00;100067.34;10275296;28;19958;-77
2022/03/21 06:10:37;;;;;;;;;;;;;;;-1.26;100.00;100056.22;10287122;28;20060;-77
2022/03/21 06:15:38;;;;;;;;;;;;;;;-0.84;100.00;100073.44;10282925;28;19961;-75
2022/03/21 06:20:39;;;;;;;;;;;;;;;-0.39;100.00;100063.81;10309076;28;20032;-76
2022/03/21 06:25:39;;;;;;;;;;;;;;;-0.13;100.00;100073.47;10323249;28;19926;-77
2022/03/21 06:30:40;;;;;;;;;;;;;;;0.12;100.00;100078.88;10293430;28;19914;-79
2022/03/21 06:35:41;;;;;;;;;;;;;;;0.43;100.00;100086.00;10293598;28;19930;-76
2022/03/21 06:40:45;;;;;;;;;;;;;;;0.87;100.00;100086.94;10270714;28;19930;-80
2022/03/21 06:45:47;;;;;;;;;;;;;;;1.07;100.00;100094.72;10263978;28;19958;-77
2022/03/21 06:50:48;;;;;;;;;;;;;;;1.07;100.00;100095.53;10277711;28;19961;-78
2022/03/21 06:55:49;;;;;;;;;;;;;;;1.51;100.00;100093.72;10303505;28;19954;-76
2022/03/21 07:00:49;;;;;;;;;;;;;;;2.44;96.74;100089.97;10294161;28;19934;-77
2022/03/21 07:05:49;;;;;;;;;;;;;;;2.85;100.00;100089.97;10292340;28;20241;-77
2022/03/21 07:10:50;;;;;;;;;;;;;;;2.30;93.42;100093.84;10268695;28;19930;-76
2022/03/21 07:15:52;;;;;;;;;;;;;;;1.98;85.47;100100.09;10300851;28;19929;-78
2022/03/21 07:20:52;;;;;;;;;;;;;;;1.99;86.23;100111.50;10301700;28;19930;-73
2022/03/21 07:25:55;;;;;;;;;;;;;;;2.44;88.04;100114.63;10276094;28;20021;-76
2022/03/21 07:30:55;;;;;;;;;;;;;;;3.02;94.37;100111.34;10289784;28;19961;-78
2022/03/21 07:35:57;;;;;;;;;;;;;;;3.07;80.75;100116.75;10309454;28;19930;-79
2022/03/21 07:40:57;;;;;;;;;;;;;;;3.19;82.36;100116.78;10293479;28;20293;-78
2022/03/21 07:51:16;;;;;;;;;;;;;;;4.08;72.87;100125.38;10298159;28;19930;-79
2022/03/21 07:56:17;;;;;;;;;;;;;;;4.02;67.35;100125.50;10298364;28;19926;-77
2022/03/21 08:01:19;;;;;;;;;;;;;;;4.45;70.30;100128.50;10305688;28;19927;-76
2022/03/21 08:06:19;;;;;;;;;;;;;;;4.45;66.17;100127.69;10300437;28;19945;-79
2022/03/21 08:11:23;;;;;;;;;;;;;;;4.54;63.32;100136.91;10293884;28;19914;-78
2022/03/21 08:16:23;;;;;;;;;;;;;;;4.79;68.00;100134.72;10304949;28;19944;-78
2022/03/21 08:21:23;;;;;;;;;;;;;;;4.88;57.84;100135.16;10298912;28;19930;-77
2022/03/21 08:26:24;;;;;;;;;;;;;;;5.17;57.31;100129.75;10322043;28;19938;-77
2022/03/21 08:31:24;;;;;;;;;;;;;;;5.52;60.83;100130.31;10330120;28;19936;-78
2022/03/21 08:36:25;;;;;;;;;;;;;;;5.54;56.57;100138.88;10334807;28;19949;-79
2022/03/21 08:41:26;;;;;;;;;;;;;;;5.84;58.13;100127.03;10339826;28;19941;-78
2022/03/21 08:46:27;;;;;;;;;;;;;;;5.86;56.30;100128.41;10324167;28;19946;-78
2022/03/21 08:51:27;;;;;;;;;;;;;;;5.97;53.43;100118.72;10322992;28;20901;-78
2022/03/21 08:56:28;;;;;;;;;;;;;;;6.18;51.85;100127.75;10323329;28;20039;-78
2022/03/21 09:01:29;;;;;;;;;;;;;;;6.31;47.35;100121.22;10309259;28;20436;-79
2022/03/21 09:06:29;;;;;;;;;;;;;;;6.35;49.75;100117.84;10306122;28;19929;-78
2022/03/21 09:11:29;;;;;;;;;;;;;;;7.04;49.73;100112.66;10313236;28;19937;-80
2022/03/21 09:16:30;;;;;;;;;;;;;;;7.13;47.21;100099.63;10311809;28;19934;-79
2022/03/21 09:21:31;;;;;;;;;;;;;;;7.01;46.52;100107.81;10305557;28;19984;-80
2022/03/21 09:26:34;;;;;;;;;;;;;;;7.65;49.22;100090.91;10283902;28;19931;-78
2022/03/21 09:31:41;;;;;;;;;;;;;;;7.61;47.21;100097.84;10266245;28;19974;-78
2022/03/21 09:36:42;;;;;;;;;;;;;;;7.55;44.80;100094.31;10225391;28;20274;-78
2022/03/21 09:41:44;;;;;;;;;;;;;;;7.90;48.01;100091.03;10273128;28;20005;-79
2022/03/21 09:46:45;;;;;;;;;;;;;;;8.09;45.99;100095.94;10308465;28;19934;-81
2022/03/21 09:51:48;;;;;;;;;;;;;;;8.14;44.84;100082.59;10313440;28;19937;-78
2022/03/21 09:56:49;;;;;;;;;;;;;;;8.24;46.07;100091.44;10298831;28;20690;-78
2022/03/21 10:01:50;;;;;;;;;;;;;;;8.54;43.26;100088.06;10292633;28;20254;-78
2022/03/21 10:06:58;;;;;;;;;;;;;;;8.76;47.80;100090.50;10272172;28;19937;-79
2022/03/21 10:11:59;;;;;;;;;;;;;;;9.15;42.19;100081.97;10270147;28;19982;-78
2022/03/21 10:17:06;;;;;;;;;;;;;;;9.03;42.94;100084.09;10304468;28;19966;-77
2022/03/21 10:22:08;;;;;;;;;;;;;;;9.38;42.17;100075.22;10298374;28;19950;-77
2022/03/21 10:27:28;;;;;;;;;;;;;;;9.94;43.92;100075.06;10261321;28;20299;-78
2022/03/21 10:32:35;;;;;;;;;;;;;;;9.71;41.67;100067.66;10265306;28;19934;-77
2022/03/21 10:37:40;;;;;;;;;;;;;;;10.10;42.83;100073.13;10267614;28;19927;-80
2022/03/21 10:42:59;;;;;;;;;;;;;;;10.65;40.09;100063.97;10267437;28;19970;-78
2022/03/21 10:48:03;;;;;;;;;;;;;;;10.89;37.02;100066.78;10270040;28;19995;-77
2022/03/21 10:53:05;;;;;;;;;;;;;;;11.10;39.06;100053.97;10268858;28;20021;-77
2022/03/21 10:58:07;;;;;;;;;;;;;;;11.39;37.13;100049.38;10311203;28;19925;-79
2022/03/21 11:03:14;;;;;;;;;;;;;;;11.56;38.04;100048.13;10282576;28;19940;-78
2022/03/21 11:08:16;;;;;;;;;;;;;;;12.22;38.27;100025.81;10285163;28;19942;-78
2022/03/21 11:13:17;;;;;;;;;;;;;;;12.51;37.37;100026.44;10272310;28;19993;-78
2022/03/21 11:18:20;;;;;;;;;;;;;;;12.55;38.23;100028.56;10255915;28;19934;-78
2022/03/21 11:23:21;;;;;;;;;;;;;;;12.67;34.92;100020.84;10244557;28;19930;-78
2022/03/21 11:28:41;;;;;;;;;;;;;;;13.15;37.64;100024.06;10322630;28;19945;-81
2022/03/21 11:34:01;;;;;;;;;;;;;;;13.04;33.61;100017.25;10308297;28;19936;-80
2022/03/21 11:39:03;;;;;;;;;;;;;;;13.02;35.20;100005.97;10297428;28;20509;-79
2022/03/21 11:44:04;;;;;;;;;;;;;;;13.32;35.26;100013.53;10289161;28;19949;-79
2022/03/21 11:49:27;;;;;;;;;;;;;;;13.08;35.53;100000.22;10302025;28;20012;-80
2022/03/21 11:54:30;;;;;;;;;;;;;;;13.74;35.04;100002.75;10260628;28;19930;-80
2022/03/21 11:59:31;;;;;;;;;;;;;;;13.37;33.32;99996.47;10303164;28;19940;-81
2022/03/21 12:04:35;;;;;;;;;;;;;;;13.76;35.70;99990.56;10331994;28;20070;-78
2022/03/21 12:09:43;;;;;;;;;;;;;;;13.73;32.99;99977.69;10325049;28;19933;-81
2022/03/21 12:15:00;;;;;;;;;;;;;;;14.52;32.44;99983.47;10314088;28;19930;-80
2022/03/21 12:20:04;;;;;;;;;;;;;;;14.71;30.77;99975.16;10304160;28;19930;-80
2022/03/21 12:25:07;;;;;;;;;;;;;;;14.25;33.21;99964.63;10294356;28;20025;-80
2022/03/21 12:30:27;;;;;;;;;;;;;;;14.23;27.96;99953.34;10269817;28;20038;-79
2022/03/21 12:35:32;;;;;;;;;;;;;;;14.16;28.17;99952.97;10278115;28;19934;-79
2022/03/21 12:40:34;;;;;;;;;;;;;;;14.90;31.68;99947.13;10271060;28;19991;-80
2022/03/21 12:45:39;;;;;;;;;;;;;;;15.01;32.60;99940.38;10283564;28;19926;-78
2022/03/21 12:50:40;;;;;;;;;;;;;;;15.16;32.38;99936.44;10265132;28;19953;-78
2022/03/21 12:55:41;;;;;;;;;;;;;;;15.37;29.38;99932.06;10266866;28;19993;-79
2022/03/21 13:00:42;;;;;;;;;;;;;;;15.22;31.03;99925.16;10241553;28;19998;-79
2022/03/21 13:11:05;;;;;;;;;;;;;;;15.68;29.04;99915.75;10261237;28;20405;-79
2022/03/21 13:16:08;;;;;;;;;;;;;;;16.25;29.55;99915.59;10266181;28;19926;-79
2022/03/21 13:21:09;;;;;;;;;;;;;;;16.06;25.49;99915.16;10270961;28;19933;-80
2022/03/21 13:26:12;;;;;;;;;;;;;;;16.30;26.72;99907.34;10274028;28;20344;-79
2022/03/21 13:31:17;;;;;;;;;;;;;;;16.72;25.91;99894.03;10294182;28;19999;-81
2022/03/21 13:36:25;;;;;;;;;;;;;;;17.02;25.29;99894.88;10293055;28;20276;-78
2022/03/21 13:41:26;;;;;;;;;;;;;;;16.55;26.71;99894.03;10310283;28;19941;-83
2022/03/21 13:46:26;;;;;;;;;;;;;;;16.52;26.52;99898.19;10288993;28;19925;-82
2022/03/21 13:51:29;;;;;;;;;;;;;;;16.55;27.35;99883.19;10315447;28;19937;-80
2022/03/21 13:56:34;;;;;;;;;;;;;;;16.60;25.84;99885.75;10323627;28;19926;-80
2022/03/21 14:01:42;;;;;;;;;;;;;;;16.47;25.41;99885.63;10316635;28;19910;-80
2022/03/21 14:07:03;;;;;;;;;;;;;;;15.65;26.92;99878.50;10290627;28;20242;-78
2022/03/21 14:12:07;;;;;;;;;;;;;;;15.50;30.66;99884.34;10275980;28;19941;-79
2022/03/21 14:17:10;;;;;;;;;;;;;;;15.84;29.75;99880.91;10262305;28;19930;-78
2022/03/21 14:22:10;;;;;;;;;;;;;;;15.79;26.61;99878.34;10287692;28;20052;-80
2022/03/21 14:27:11;;;;;;;;;;;;;;;15.42;27.70;99880.50;10289414;28;19973;-80
2022/03/21 14:32:12;;;;;;;;;;;;;;;15.58;28.84;99873.53;10328945;28;20022;-80
2022/03/21 14:37:12;;;;;;;;;;;;;;;15.53;27.38;99868.25;10324063;28;19964;-80
2022/03/21 14:42:13;;;;;;;;;;;;;;;15.14;27.62;99865.63;10334030;28;19952;-80
2022/03/21 14:47:15;;;;;;;;;;;;;;;15.16;28.67;99869.63;10335832;28;19934;-81
2022/03/21 14:52:15;;;;;;;;;;;;;;;15.12;27.51;99857.03;10342177;28;19966;-79
2022/03/21 14:57:16;;;;;;;;;;;;;;;14.36;29.54;99862.56;10358546;28;19926;-80
2022/03/21 15:02:18;;;;;;;;;;;;;;;13.45;31.26;99858.22;10312136;28;19934;-80
2022/03/21 15:07:21;;;;;;;;;;;;;;;13.53;29.78;99853.97;10408554;23;19964;-79
2022/03/21 15:12:23;;;;;;;;;;;;;;;13.47;29.60;99858.72;10399554;28;19933;-81
2022/03/21 15:17:23;;;;;;;;;;;;;;;13.56;30.53;99850.69;10401101;28;20249;-82
2022/03/21 15:22:27;;;;;;;;;;;;;;;13.52;31.16;99850.50;10415884;28;20398;-80
2022/03/21 15:27:31;;;;;;;;;;;;;;;13.18;29.33;99845.53;10391922;28;19925;-84
2022/03/21 15:32:35;;;;;;;;;;;;;;;12.96;29.54;99843.53;10363774;28;19944;-81
2022/03/21 15:42:58;;;;;;;;;;;;;;;13.00;32.11;99852.66;10417740;28;20435;-79
2022/03/21 15:47:59;;;;;;;;;;;;;;;12.92;31.36;99850.66;10380895;28;19968;-79
2022/03/21 15:53:04;;;;;;;;;;;;;;;12.51;31.83;99846.00;10399534;28;19939;-78
2022/03/21 15:58:05;;;;;;;;;;;;;;;12.54;31.45;99847.31;10379903;28;20416;-78
2022/03/21 16:03:06;;;;;;;;;;;;;;;12.50;32.97;99846.31;10402732;28;20000;-77
2022/03/21 16:08:08;;;;;;;;;;;;;;;12.40;32.51;99855.38;10451662;28;19929;-81
2022/03/21 16:13:10;;;;;;;;;;;;;;;12.21;33.43;99850.03;10433474;28;20066;-78
2022/03/21 16:18:11;;;;;;;;;;;;;;;12.21;34.23;99850.03;10430308;28;19975;-79
2022/03/21 16:23:13;;;;;;;;;;;;;;;11.97;33.34;99846.66;10446411;28;19935;-80
2022/03/21 16:28:14;;;;;;;;;;;;;;;12.00;34.77;99845.28;10468894;28;20252;-79
2022/03/21 16:33:19;;;;;;;;;;;;;;;11.84;34.04;99863.56;10422325;28;19925;-79
2022/03/21 16:38:24;;;;;;;;;;;;;;;11.84;33.84;99858.97;10444704;28;19929;-79
2022/03/21 16:43:27;;;;;;;;;;;;;;;11.65;34.74;99858.94;10428197;28;20027;-78
2022/03/21 16:48:29;;;;;;;;;;;;;;;11.34;35.88;99860.47;10413323;28;19929;-78
2022/03/21 16:53:29;;;;;;;;;;;;;;;11.13;36.07;99862.59;10431077;28;20303;-79
2022/03/21 16:58:33;;;;;;;;;;;;;;;11.00;36.00;99850.66;10441126;28;19928;-80
2022/03/21 17:03:36;;;;;;;;;;;;;;;10.79;36.70;99852.00;10443115;28;19928;-81
2022/03/21 17:08:37;;;;;;;;;;;;;;;10.68;38.40;99853.97;10418938;28;19936;-79
2022/03/21 17:13:41;;;;;;;;;;;;;;;10.39;38.77;99858.56;10420539;28;19924;-78
2022/03/21 17:23:55;;;;;;;;;;;;;;;9.99;38.38;99860.47;10426874;28;19959;-81
2022/03/21 17:28:57;;;;;;;;;;;;;;;9.74;39.75;99857.97;10425263;28;19971;-78
2022/03/21 17:33:57;;;;;;;;;;;;;;;9.53;39.61;99868.00;10439266;28;19964;-80
2022/03/21 17:38:58;;;;;;;;;;;;;;;9.30;41.14;99870.25;10442976;28;19928;-78
2022/03/21 17:43:58;;;;;;;;;;;;;;;9.12;41.02;99869.00;10443668;28;20371;-79
2022/03/21 17:48:58;;;;;;;;;;;;;;;8.95;41.97;99871.19;10428387;28;19948;-79
2022/03/21 17:54:00;;;;;;;;;;;;;;;8.79;41.94;99873.13;10437900;28;20336;-78
2022/03/21 17:59:06;;;;;;;;;;;;;;;8.63;42.72;99881.47;10446837;28;19925;-79
2022/03/21 18:04:07;;;;;;;;;;;;;;;8.49;43.82;99879.31;10443086;28;20459;-80
2022/03/21 18:09:10;;;;;;;;;;;;;;;8.28;44.91;99885.75;10478145;28;19928;-81
2022/03/21 18:14:11;;;;;;;;;;;;;;;8.04;45.83;99877.44;10454243;28;19925;-79
2022/03/21 18:19:44;;;;;;;;;;;;;;;7.87;47.73;99882.25;10452586;28;20004;-79
2022/03/21 18:24:34;;;;;;;;;;;;;;;7.63;49.35;99881.94;10451137;28;19929;-84
2022/03/21 18:29:38;;;;;;;;;;;;;;;7.50;50.37;99879.75;10424379;28;19935;-78
2022/03/21 18:34:40;;;;;;;;;;;;;;;7.30;53.25;99886.63;10426899;28;20390;-83
2022/03/21 18:39:42;;;;;;;;;;;;;;;7.10;53.97;99892.69;10434774;28;19952;-80
2022/03/21 18:44:48;;;;;;;;;;;;;;;6.91;56.45;99893.41;10437673;28;20380;-79
2022/03/21 18:49:49;;;;;;;;;;;;;;;6.69;59.04;99893.53;10437211;28;20267;-83
2022/03/21 18:54:53;;;;;;;;;;;;;;;6.44;63.89;99892.31;10456073;28;20145;-79
2022/03/21 18:59:53;;;;;;;;;;;;;;;6.32;67.85;99904.22;10437030;28;19929;-77
2022/03/21 19:04:54;;;;;;;;;;;;;;;6.25;65.53;99909.75;10465271;28;19925;-79
2022/03/21 19:09:54;;;;;;;;;;;;;;;6.24;65.61;99916.94;10457944;28;19936;-78
2022/03/21 19:14:55;;;;;;;;;;;;;;;6.08;72.02;99920.53;10436352;28;19937;-79
2022/03/21 19:19:57;;;;;;;;;;;;;;;5.99;68.91;99922.84;10450886;28;19925;-77
2022/03/21 19:24:58;;;;;;;;;;;;;;;5.92;69.87;99922.25;10422411;28;19951;-78
2022/03/21 19:29:58;;;;;;;;;;;;;;;5.87;69.47;99918.72;10428747;28;20002;-77
2022/03/21 19:34:59;;;;;;;;;;;;;;;5.75;73.65;99937.47;10423730;28;20098;-78
2022/03/21 19:39:59;;;;;;;;;;;;;;;5.66;72.99;99938.97;10424596;28;19979;-79
2022/03/21 19:45:00;;;;;;;;;;;;;;;5.58;73.14;99932.25;10440069;28;19924;-81
2022/03/21 19:50:10;;;;;;;;;;;;;;;5.54;74.20;99935.66;10387316;28;19932;-80
2022/03/21 19:55:17;;;;;;;;;;;;;;;5.55;75.03;99938.06;10458159;28;19934;-82
2022/03/21 20:00:19;;;;;;;;;;;;;;;5.57;76.11;99940.47;10448303;28;19933;-81
2022/03/21 20:05:25;;;;;;;;;;;;;;;5.47;76.79;99943.03;10478081;28;19916;-79
2022/03/21 20:10:30;;;;;;;;;;;;;;;5.43;77.09;99945.38;10478786;28;19929;-80
2022/03/21 20:15:31;;;;;;;;;;;;;;;5.26;79.40;99936.66;10467124;28;19976;-80
2022/03/21 20:20:32;;;;;;;;;;;;;;;5.10;86.62;99946.28;10440350;28;19956;-79
2022/03/21 20:25:33;;;;;;;;;;;;;;;4.86;84.91;99937.72;10426340;28;19955;-79
2022/03/21 20:30:34;;;;;;;;;;;;;;;4.71;89.21;99932.97;10431975;28;19974;-79
2022/03/21 20:35:35;;;;;;;;;;;;;;;4.64;89.96;99940.31;10449857;28;20044;-77
2022/03/21 20:40:36;;;;;;;;;;;;;;;4.72;88.10;99937.25;10458238;28;19929;-78
2022/03/21 20:45:37;;;;;;;;;;;;;;;4.86;88.47;99940.38;10469498;28;20072;-78
2022/03/21 20:50:38;;;;;;;;;;;;;;;4.69;90.04;99936.94;10477842;28;20355;-79
2022/03/21 20:55:40;;;;;;;;;;;;;;;4.70;87.85;99942.00;10460175;28;19971;-77
2022/03/21 21:00:42;;;;;;;;;;;;;;;4.60;89.62;99939.19;10466752;28;19936;-79
2022/03/21 21:05:45;;;;;;;;;;;;;;;4.50;89.10;99941.69;10448531;23;19952;-77
2022/03/21 21:10:51;;;;;;;;;;;;;;;4.42;90.16;99939.44;10386095;28;19929;-78
2022/03/21 21:15:52;;;;;;;;;;;;;;;4.35;92.23;99939.59;10369378;28;19925;-77
2022/03/21 21:20:55;;;;;;;;;;;;;;;4.26;95.53;99943.69;10387409;28;19937;-78
2022/03/21 21:25:58;;;;;;;;;;;;;;;4.22;97.80;99940.72;10425391;28;19921;-76
2022/03/21 21:30:59;;;;;;;;;;;;;;;4.12;97.71;99937.09;10406521;28;19933;-76
2022/03/21 21:35:59;;;;;;;;;;;;;;;3.96;98.80;99942.13;10349774;28;19932;-77
2022/03/21 21:41:01;;;;;;;;;;;;;;;3.93;100.00;99936.47;10397963;28;19931;-76
2022/03/21 21:46:03;;;;;;;;;;;;;;;4.16;100.00;99941.66;10397123;28;20012;-78
2022/03/21 21:51:05;;;;;;;;;;;;;;;3.88;100.00;99950.47;10401376;28;19948;-77
2022/03/21 21:56:05;;;;;;;;;;;;;;;3.63;100.00;99936.72;10390531;28;19972;-76
2022/03/21 22:01:06;;;;;;;;;;;;;;;3.54;100.00;99936.28;10372856;28;20024;-75
2022/03/21 22:06:07;;;;;;;;;;;;;;;3.38;100.00;99939.66;10373912;28;20453;-76
2022/03/21 22:11:07;;;;;;;;;;;;;;;3.29;100.00;99939.25;10381670;28;19933;-76
2022/03/21 22:16:08;;;;;;;;;;;;;;;3.25;100.00;99940.75;10351907;28;19929;-76
2022/03/21 22:21:08;;;;;;;;;;;;;;;3.18;100.00;99944.56;10396754;28;19947;-76
2022/03/21 22:26:08;;;;;;;;;;;;;;;2.96;100.00;99953.13;10382292;28;19929;-76
2022/03/21 22:31:09;;;;;;;;;;;;;;;2.82;100.00;99955.19;10392122;28;19925;-77
2022/03/21 22:36:09;;;;;;;;;;;;;;;2.76;100.00;99950.81;10394950;28;19925;-76
2022/03/21 22:51:47;;;;;;;;;;;;;;;2.76;100.00;99955.31;10388818;28;19933;-76
2022/03/21 22:56:48;;;;;;;;;;;;;;;2.42;100.00;99951.59;10389543;28;19984;-76
2022/03/21 23:01:51;;;;;;;;;;;;;;;2.17;100.00;99954.41;10381493;28;20554;-76
2022/03/21 23:06:51;;;;;;;;;;;;;;;1.84;100.00;99962.84;10387793;28;19929;-77
2022/03/21 23:11:57;;;;;;;;;;;;;;;1.58;100.00;99967.44;10388835;28;20497;-76
2022/03/21 23:16:58;;;;;;;;;;;;;;;1.45;100.00;99967.56;10387011;28;19925;-77
2022/03/21 23:21:59;;;;;;;;;;;;;;;1.23;100.00;99974.34;10394559;28;19936;-77
2022/03/21 23:26:59;;;;;;;;;;;;;;;1.04;100.00;99973.53;10398164;28;19929;-78
2022/03/21 23:31:59;;;;;;;;;;;;;;;0.97;100.00;99986.00;10384782;28;19925;-77
2022/03/21 23:37:01;;;;;;;;;;;;;;;0.84;100.00;99963.97;10402234;28;19929;-77
2022/03/21 23:47:21;;;;;;;;;;;;;;;0.89;100.00;99978.34;10394980;28;20036;-78
2022/03/21 23:52:28;;;;;;;;;;;;;;;0.54;100.00;99979.66;10387528;28;20113;-78
2022/03/21 23:57:29;;;;;;;;;;;;;;;0.37;100.00;99969.84;10394824;28;20456;-77
